Kendrick, Idaho
Current Conditions -  °F | °C
As of 4:32 PM on Tuesday 25 Nov 2014 (Local Time) from KLWS Reporting Station
Light Rain Light Rain  
Wind Chill: 43°   Ceiling: 600
Heat Index: 45°   Visibility: 7mi
Dew Point: 43°   Wind: 5mph
Humidity: 93%   Direction: 90°E
Pressure: 30.17"   Gusts: NA
Location:  46.61°N, 116.65°W
Report Text: KLWS 260032Z 09004KT 7SM -RA BKN006 BKN012 OVC025 07/06 A3017 RMK AO2 P0003 T00720061
Loading
Personal Weather Stations






























Interactive Weather Map New forecast layout! Learn more

10-Day Weather Forecast

Advertisements
Track Severe Weather on mobile